sensor_id;sensor_type;location;lat;lon;timestamp;temperature;humidity
26479;DHT22;14163;-26.142;27.992;2022-11-09T00:01:42;19.10;99.90
26479;DHT22;14163;-26.142;27.992;2022-11-09T00:04:11;19.20;99.90
26479;DHT22;14163;-26.142;27.992;2022-11-09T00:06:40;19.20;99.90
26479;DHT22;14163;-26.142;27.992;2022-11-09T00:09:10;19.20;99.90
26479;DHT22;14163;-26.142;27.992;2022-11-09T00:11:39;19.20;99.90
26479;DHT22;14163;-26.142;27.992;2022-11-09T00:14:15;19.20;99.90
26479;DHT22;14163;-26.142;27.992;2022-11-09T00:16:44;19.30;99.90
26479;DHT22;14163;-26.142;27.992;2022-11-09T00:19:13;19.30;99.90
26479;DHT22;14163;-26.142;27.992;2022-11-09T00:21:43;19.20;99.90
26479;DHT22;14163;-26.142;27.992;2022-11-09T00:24:12;19.20;99.90
26479;DHT22;14163;-26.142;27.992;2022-11-09T00:26:41;19.20;99.90
26479;DHT22;14163;-26.142;27.992;2022-11-09T00:29:10;19.20;99.90
26479;DHT22;14163;-26.142;27.992;2022-11-09T00:31:41;19.20;99.90
26479;DHT22;14163;-26.142;27.992;2022-11-09T00:34:10;19.20;99.90
26479;DHT22;14163;-26.142;27.992;2022-11-09T00:36:40;19.10;99.90
26479;DHT22;14163;-26.142;27.992;2022-11-09T00:39:09;19.10;99.90
26479;DHT22;14163;-26.142;27.992;2022-11-09T00:41:38;19.10;99.90
26479;DHT22;14163;-26.142;27.992;2022-11-09T00:44:07;19.10;99.90
26479;DHT22;14163;-26.142;27.992;2022-11-09T00:46:36;19.20;99.90
26479;DHT22;14163;-26.142;27.992;2022-11-09T00:49:07;19.20;99.90
26479;DHT22;14163;-26.142;27.992;2022-11-09T00:51:36;19.20;99.90
26479;DHT22;14163;-26.142;27.992;2022-11-09T00:54:05;19.10;99.90
26479;DHT22;14163;-26.142;27.992;2022-11-09T00:56:35;19.10;99.90
26479;DHT22;14163;-26.142;27.992;2022-11-09T00:59:05;19.10;99.90
26479;DHT22;14163;-26.142;27.992;2022-11-09T01:01:34;19.10;99.90
26479;DHT22;14163;-26.142;27.992;2022-11-09T01:04:03;19.10;99.90
26479;DHT22;14163;-26.142;27.992;2022-11-09T01:06:34;19.10;99.90
26479;DHT22;14163;-26.142;27.992;2022-11-09T01:09:03;19.10;99.90
26479;DHT22;14163;-26.142;27.992;2022-11-09T01:11:32;19.00;99.90
26479;DHT22;14163;-26.142;27.992;2022-11-09T01:14:02;19.00;99.90
26479;DHT22;14163;-26.142;27.992;2022-11-09T01:16:31;19.00;99.90
26479;DHT22;14163;-26.142;27.992;2022-11-09T01:19:00;19.00;99.90
26479;DHT22;14163;-26.142;27.992;2022-11-09T01:21:29;18.90;99.90
26479;DHT22;14163;-26.142;27.992;2022-11-09T01:24:00;18.90;99.90
26479;DHT22;14163;-26.142;27.992;2022-11-09T01:26:29;18.90;99.90
26479;DHT22;14163;-26.142;27.992;2022-11-09T01:28:59;18.90;99.90
26479;DHT22;14163;-26.142;27.992;2022-11-09T01:31:28;18.80;99.90
26479;DHT22;14163;-26.142;27.992;2022-11-09T01:33:58;18.90;99.90
26479;DHT22;14163;-26.142;27.992;2022-11-09T01:36:27;18.90;99.90
26479;DHT22;14163;-26.142;27.992;2022-11-09T01:38:56;18.90;99.90
26479;DHT22;14163;-26.142;27.992;2022-11-09T01:41:28;18.90;99.90
26479;DHT22;14163;-26.142;27.992;2022-11-09T01:44:08;18.90;99.90
26479;DHT22;14163;-26.142;27.992;2022-11-09T01:46:42;18.90;99.90
26479;DHT22;14163;-26.142;27.992;2022-11-09T01:49:17;18.90;99.90
26479;DHT22;14163;-26.142;27.992;2022-11-09T01:51:50;18.80;99.90
26479;DHT22;14163;-26.142;27.992;2022-11-09T01:54:24;18.80;99.90
26479;DHT22;14163;-26.142;27.992;2022-11-09T01:56:58;18.80;99.90
26479;DHT22;14163;-26.142;27.992;2022-11-09T01:59:30;18.70;99.90
26479;DHT22;14163;-26.142;27.992;2022-11-09T02:02:01;18.70;99.90
26479;DHT22;14163;-26.142;27.992;2022-11-09T02:04:34;18.70;99.90
26479;DHT22;14163;-26.142;27.992;2022-11-09T02:07:04;18.80;99.90
26479;DHT22;14163;-26.142;27.992;2022-11-09T02:09:42;18.70;99.90
26479;DHT22;14163;-26.142;27.992;2022-11-09T02:12:16;18.60;99.90
26479;DHT22;14163;-26.142;27.992;2022-11-09T02:14:47;18.70;99.90
26479;DHT22;14163;-26.142;27.992;2022-11-09T02:17:18;18.60;99.90
26479;DHT22;14163;-26.142;27.992;2022-11-09T02:19:47;18.60;99.90
26479;DHT22;14163;-26.142;27.992;2022-11-09T02:22:18;18.60;99.90
26479;DHT22;14163;-26.142;27.992;2022-11-09T02:24:47;18.60;99.90
26479;DHT22;14163;-26.142;27.992;2022-11-09T02:27:17;18.60;99.90
26479;DHT22;14163;-26.142;27.992;2022-11-09T02:29:47;18.60;99.90
26479;DHT22;14163;-26.142;27.992;2022-11-09T02:32:19;18.60;99.90
26479;DHT22;14163;-26.142;27.992;2022-11-09T02:34:49;18.50;99.90
26479;DHT22;14163;-26.142;27.992;2022-11-09T02:37:27;18.60;99.90
26479;DHT22;14163;-26.142;27.992;2022-11-09T02:39:57;18.50;99.90
26479;DHT22;14163;-26.142;27.992;2022-11-09T02:42:27;18.60;99.90
26479;DHT22;14163;-26.142;27.992;2022-11-09T02:44:58;18.60;99.90
26479;DHT22;14163;-26.142;27.992;2022-11-09T02:47:28;18.50;99.90
26479;DHT22;14163;-26.142;27.992;2022-11-09T02:49:57;18.50;99.90
26479;DHT22;14163;-26.142;27.992;2022-11-09T02:52:28;18.50;99.90
26479;DHT22;14163;-26.142;27.992;2022-11-09T02:54:57;18.50;99.90
26479;DHT22;14163;-26.142;27.992;2022-11-09T02:57:26;18.50;99.90
26479;DHT22;14163;-26.142;27.992;2022-11-09T02:59:55;18.50;99.90
26479;DHT22;14163;-26.142;27.992;2022-11-09T03:02:24;18.50;99.90
26479;DHT22;14163;-26.142;27.992;2022-11-09T03:04:53;18.60;99.90
26479;DHT22;14163;-26.142;27.992;2022-11-09T03:07:23;18.50;99.90
26479;DHT22;14163;-26.142;27.992;2022-11-09T03:09:54;18.50;99.90
26479;DHT22;14163;-26.142;27.992;2022-11-09T03:12:23;18.50;99.90
26479;DHT22;14163;-26.142;27.992;2022-11-09T03:14:59;18.50;99.90
26479;DHT22;14163;-26.142;27.992;2022-11-09T03:17:30;18.50;99.90
26479;DHT22;14163;-26.142;27.992;2022-11-09T03:19:59;18.50;99.90
26479;DHT22;14163;-26.142;27.992;2022-11-09T03:22:28;18.50;99.90
26479;DHT22;14163;-26.142;27.992;2022-11-09T03:24:59;18.40;99.90
26479;DHT22;14163;-26.142;27.992;2022-11-09T03:27:28;18.40;99.90
26479;DHT22;14163;-26.142;27.992;2022-11-09T03:29:57;18.40;99.90
26479;DHT22;14163;-26.142;27.992;2022-11-09T03:32:26;18.50;99.90
26479;DHT22;14163;-26.142;27.992;2022-11-09T03:34:55;18.50;99.90
26479;DHT22;14163;-26.142;27.992;2022-11-09T03:37:24;18.50;99.90
26479;DHT22;14163;-26.142;27.992;2022-11-09T03:39:53;18.60;99.90
26479;DHT22;14163;-26.142;27.992;2022-11-09T03:42:24;18.60;99.90
26479;DHT22;14163;-26.142;27.992;2022-11-09T03:44:53;18.60;99.90
26479;DHT22;14163;-26.142;27.992;2022-11-09T03:47:23;18.60;99.90
26479;DHT22;14163;-26.142;27.992;2022-11-09T03:49:52;18.70;99.90
26479;DHT22;14163;-26.142;27.992;2022-11-09T03:52:21;18.70;99.90
26479;DHT22;14163;-26.142;27.992;2022-11-09T03:54:50;18.80;99.90
26479;DHT22;14163;-26.142;27.992;2022-11-09T03:57:19;18.80;99.90
26479;DHT22;14163;-26.142;27.992;2022-11-09T03:59:50;18.80;99.90
26479;DHT22;14163;-26.142;27.992;2022-11-09T04:02:19;18.90;99.90
26479;DHT22;14163;-26.142;27.992;2022-11-09T04:04:48;18.90;99.90
26479;DHT22;14163;-26.142;27.992;2022-11-09T04:07:18;18.90;99.90
26479;DHT22;14163;-26.142;27.992;2022-11-09T04:09:47;18.90;99.90
26479;DHT22;14163;-26.142;27.992;2022-11-09T04:12:16;18.90;99.90
26479;DHT22;14163;-26.142;27.992;2022-11-09T04:14:45;18.90;99.90
26479;DHT22;14163;-26.142;27.992;2022-11-09T04:17:16;18.90;99.90
26479;DHT22;14163;-26.142;27.992;2022-11-09T04:19:45;19.00;99.90
26479;DHT22;14163;-26.142;27.992;2022-11-09T04:22:14;19.00;99.90
26479;DHT22;14163;-26.142;27.992;2022-11-09T04:24:44;19.00;99.90
26479;DHT22;14163;-26.142;27.992;2022-11-09T04:27:13;19.10;99.90
26479;DHT22;14163;-26.142;27.992;2022-11-09T04:29:42;19.10;99.90
26479;DHT22;14163;-26.142;27.992;2022-11-09T04:32:11;19.10;99.90
26479;DHT22;14163;-26.142;27.992;2022-11-09T04:34:42;19.20;99.90
26479;DHT22;14163;-26.142;27.992;2022-11-09T04:37:11;19.20;99.90
26479;DHT22;14163;-26.142;27.992;2022-11-09T04:39:41;19.20;99.90
26479;DHT22;14163;-26.142;27.992;2022-11-09T04:42:11;19.20;99.90
26479;DHT22;14163;-26.142;27.992;2022-11-09T04:44:40;19.20;99.90
26479;DHT22;14163;-26.142;27.992;2022-11-09T04:47:09;19.30;99.90
26479;DHT22;14163;-26.142;27.992;2022-11-09T04:49:38;19.30;99.90
26479;DHT22;14163;-26.142;27.992;2022-11-09T04:52:09;19.30;99.90
26479;DHT22;14163;-26.142;27.992;2022-11-09T04:54:38;19.30;99.90
26479;DHT22;14163;-26.142;27.992;2022-11-09T04:57:07;19.30;99.90
26479;DHT22;14163;-26.142;27.992;2022-11-09T04:59:36;19.40;99.90
26479;DHT22;14163;-26.142;27.992;2022-11-09T05:02:05;19.40;99.90
26479;DHT22;14163;-26.142;27.992;2022-11-09T05:04:35;19.40;99.90
26479;DHT22;14163;-26.142;27.992;2022-11-09T05:07:04;19.40;99.90
26479;DHT22;14163;-26.142;27.992;2022-11-09T05:09:34;19.50;99.90
26479;DHT22;14163;-26.142;27.992;2022-11-09T05:12:04;19.60;99.90
26479;DHT22;14163;-26.142;27.992;2022-11-09T05:14:33;19.70;99.90
26479;DHT22;14163;-26.142;27.992;2022-11-09T05:17:03;19.80;99.90
26479;DHT22;14163;-26.142;27.992;2022-11-09T05:19:34;19.80;99.90
26479;DHT22;14163;-26.142;27.992;2022-11-09T05:22:03;19.80;99.90
26479;DHT22;14163;-26.142;27.992;2022-11-09T05:24:47;19.80;99.90
26479;DHT22;14163;-26.142;27.992;2022-11-09T05:27:17;19.90;99.90
26479;DHT22;14163;-26.142;27.992;2022-11-09T05:29:46;19.90;99.90
26479;DHT22;14163;-26.142;27.992;2022-11-09T05:32:16;20.00;99.90
26479;DHT22;14163;-26.142;27.992;2022-11-09T05:34:45;20.10;99.90
26479;DHT22;14163;-26.142;27.992;2022-11-09T05:37:14;20.10;99.90
26479;DHT22;14163;-26.142;27.992;2022-11-09T05:39:47;20.10;99.90
26479;DHT22;14163;-26.142;27.992;2022-11-09T05:42:17;20.20;99.90
26479;DHT22;14163;-26.142;27.992;2022-11-09T05:44:46;20.20;99.90
26479;DHT22;14163;-26.142;27.992;2022-11-09T05:47:15;20.20;99.90
26479;DHT22;14163;-26.142;27.992;2022-11-09T05:49:45;20.30;99.90
26479;DHT22;14163;-26.142;27.992;2022-11-09T05:52:14;20.30;99.90
26479;DHT22;14163;-26.142;27.992;2022-11-09T05:54:43;20.40;99.90
26479;DHT22;14163;-26.142;27.992;2022-11-09T05:57:14;20.40;99.90
26479;DHT22;14163;-26.142;27.992;2022-11-09T05:59:43;20.50;99.90
26479;DHT22;14163;-26.142;27.992;2022-11-09T06:02:12;20.50;99.90
26479;DHT22;14163;-26.142;27.992;2022-11-09T06:04:42;20.50;99.90
26479;DHT22;14163;-26.142;27.992;2022-11-09T06:07:11;20.50;99.90
26479;DHT22;14163;-26.142;27.992;2022-11-09T06:09:40;20.50;99.90
26479;DHT22;14163;-26.142;27.992;2022-11-09T06:12:09;20.60;99.90
26479;DHT22;14163;-26.142;27.992;2022-11-09T06:14:40;20.60;99.90
26479;DHT22;14163;-26.142;27.992;2022-11-09T06:17:09;20.60;99.90
26479;DHT22;14163;-26.142;27.992;2022-11-09T06:19:38;20.60;99.90
26479;DHT22;14163;-26.142;27.992;2022-11-09T06:22:07;20.60;99.90
26479;DHT22;14163;-26.142;27.992;2022-11-09T06:24:37;20.70;99.90
26479;DHT22;14163;-26.142;27.992;2022-11-09T06:27:06;20.70;99.90
26479;DHT22;14163;-26.142;27.992;2022-11-09T06:29:35;20.70;99.90
26479;DHT22;14163;-26.142;27.992;2022-11-09T06:32:06;20.70;99.90
26479;DHT22;14163;-26.142;27.992;2022-11-09T06:34:35;20.70;99.90
26479;DHT22;14163;-26.142;27.992;2022-11-09T06:37:04;20.70;99.90
26479;DHT22;14163;-26.142;27.992;2022-11-09T06:39:33;20.70;99.90
26479;DHT22;14163;-26.142;27.992;2022-11-09T06:42:02;20.70;99.90
26479;DHT22;14163;-26.142;27.992;2022-11-09T06:44:32;20.70;99.90
26479;DHT22;14163;-26.142;27.992;2022-11-09T06:47:01;20.70;99.90
26479;DHT22;14163;-26.142;27.992;2022-11-09T06:49:32;20.80;99.90
26479;DHT22;14163;-26.142;27.992;2022-11-09T06:52:01;20.90;99.90
26479;DHT22;14163;-26.142;27.992;2022-11-09T06:54:31;20.90;99.90
26479;DHT22;14163;-26.142;27.992;2022-11-09T06:57:01;20.90;99.90
26479;DHT22;14163;-26.142;27.992;2022-11-09T06:59:30;21.00;99.90
26479;DHT22;14163;-26.142;27.992;2022-11-09T07:02:00;21.00;99.90
26479;DHT22;14163;-26.142;27.992;2022-11-09T07:04:31;21.00;99.90
26479;DHT22;14163;-26.142;27.992;2022-11-09T07:07:00;21.00;99.90
26479;DHT22;14163;-26.142;27.992;2022-11-09T07:09:30;21.00;99.90
26479;DHT22;14163;-26.142;27.992;2022-11-09T07:11:59;21.00;99.90
26479;DHT22;14163;-26.142;27.992;2022-11-09T07:14:29;21.10;99.90
26479;DHT22;14163;-26.142;27.992;2022-11-09T07:16:59;21.10;99.90
26479;DHT22;14163;-26.142;27.992;2022-11-09T07:19:30;21.10;99.90
26479;DHT22;14163;-26.142;27.992;2022-11-09T07:21:59;21.10;99.90
26479;DHT22;14163;-26.142;27.992;2022-11-09T07:24:28;21.10;99.90
26479;DHT22;14163;-26.142;27.992;2022-11-09T07:26:57;21.10;99.90
26479;DHT22;14163;-26.142;27.992;2022-11-09T07:29:26;21.10;99.90
26479;DHT22;14163;-26.142;27.992;2022-11-09T07:31:56;21.20;99.90
26479;DHT22;14163;-26.142;27.992;2022-11-09T07:34:25;21.30;99.90
26479;DHT22;14163;-26.142;27.992;2022-11-09T07:36:55;21.30;99.90
26479;DHT22;14163;-26.142;27.992;2022-11-09T07:39:25;21.40;99.90
26479;DHT22;14163;-26.142;27.992;2022-11-09T07:41:54;21.50;99.90
26479;DHT22;14163;-26.142;27.992;2022-11-09T07:44:23;21.50;99.90
26479;DHT22;14163;-26.142;27.992;2022-11-09T07:46:52;21.50;99.90
26479;DHT22;14163;-26.142;27.992;2022-11-09T07:49:21;21.50;99.90
26479;DHT22;14163;-26.142;27.992;2022-11-09T07:51:50;21.50;99.90
26479;DHT22;14163;-26.142;27.992;2022-11-09T07:54:21;21.40;99.90
26479;DHT22;14163;-26.142;27.992;2022-11-09T07:56:51;21.50;99.90
26479;DHT22;14163;-26.142;27.992;2022-11-09T07:59:20;21.70;99.90
26479;DHT22;14163;-26.142;27.992;2022-11-09T08:01:50;21.80;99.90
26479;DHT22;14163;-26.142;27.992;2022-11-09T08:04:19;21.80;99.90
26479;DHT22;14163;-26.142;27.992;2022-11-09T08:06:50;21.90;99.90
26479;DHT22;14163;-26.142;27.992;2022-11-09T08:09:21;21.90;99.90
26479;DHT22;14163;-26.142;27.992;2022-11-09T08:11:50;22.00;99.90
26479;DHT22;14163;-26.142;27.992;2022-11-09T08:14:19;22.00;99.90
26479;DHT22;14163;-26.142;27.992;2022-11-09T08:16:48;21.90;99.90
26479;DHT22;14163;-26.142;27.992;2022-11-09T08:19:18;21.90;99.90
26479;DHT22;14163;-26.142;27.992;2022-11-09T08:21:47;21.90;99.90
26479;DHT22;14163;-26.142;27.992;2022-11-09T08:24:16;22.00;99.90
26479;DHT22;14163;-26.142;27.992;2022-11-09T08:26:47;22.10;99.90
26479;DHT22;14163;-26.142;27.992;2022-11-09T08:29:16;22.10;99.90
26479;DHT22;14163;-26.142;27.992;2022-11-09T08:31:47;22.20;99.90
26479;DHT22;14163;-26.142;27.992;2022-11-09T08:34:17;22.30;99.90
26479;DHT22;14163;-26.142;27.992;2022-11-09T08:36:46;22.50;99.90
26479;DHT22;14163;-26.142;27.992;2022-11-09T08:39:15;22.50;99.90
26479;DHT22;14163;-26.142;27.992;2022-11-09T08:41:47;22.50;99.90
26479;DHT22;14163;-26.142;27.992;2022-11-09T08:44:16;22.50;99.90
26479;DHT22;14163;-26.142;27.992;2022-11-09T08:46:45;22.70;99.90
26479;DHT22;14163;-26.142;27.992;2022-11-09T08:49:15;22.70;99.90
26479;DHT22;14163;-26.142;27.992;2022-11-09T08:51:44;22.70;99.90
26479;DHT22;14163;-26.142;27.992;2022-11-09T08:54:13;22.80;99.90
26479;DHT22;14163;-26.142;27.992;2022-11-09T08:56:43;22.80;99.90
26479;DHT22;14163;-26.142;27.992;2022-11-09T08:59:15;22.80;99.90
26479;DHT22;14163;-26.142;27.992;2022-11-09T09:01:44;22.90;99.90
26479;DHT22;14163;-26.142;27.992;2022-11-09T09:04:13;22.90;99.90
26479;DHT22;14163;-26.142;27.992;2022-11-09T09:06:42;22.90;99.90
26479;DHT22;14163;-26.142;27.992;2022-11-09T09:09:11;23.00;99.90
26479;DHT22;14163;-26.142;27.992;2022-11-09T09:11:41;23.10;99.90
26479;DHT22;14163;-26.142;27.992;2022-11-09T09:14:10;23.10;99.90
26479;DHT22;14163;-26.142;27.992;2022-11-09T09:16:41;23.10;99.90
26479;DHT22;14163;-26.142;27.992;2022-11-09T09:19:10;23.20;99.90
26479;DHT22;14163;-26.142;27.992;2022-11-09T09:21:39;23.20;99.90
26479;DHT22;14163;-26.142;27.992;2022-11-09T09:24:09;23.20;99.90
26479;DHT22;14163;-26.142;27.992;2022-11-09T09:26:38;23.30;99.90
26479;DHT22;14163;-26.142;27.992;2022-11-09T09:29:07;23.40;99.90
26479;DHT22;14163;-26.142;27.992;2022-11-09T09:31:39;23.50;99.90
26479;DHT22;14163;-26.142;27.992;2022-11-09T09:34:08;23.50;99.90
26479;DHT22;14163;-26.142;27.992;2022-11-09T09:36:38;23.60;99.90
26479;DHT22;14163;-26.142;27.992;2022-11-09T09:39:08;23.60;99.90
26479;DHT22;14163;-26.142;27.992;2022-11-09T09:41:39;23.60;99.90
26479;DHT22;14163;-26.142;27.992;2022-11-09T09:44:19;23.60;99.90
26479;DHT22;14163;-26.142;27.992;2022-11-09T09:46:54;23.60;99.90
26479;DHT22;14163;-26.142;27.992;2022-11-09T09:49:26;23.60;99.90
26479;DHT22;14163;-26.142;27.992;2022-11-09T09:52:00;23.50;99.90
26479;DHT22;14163;-26.142;27.992;2022-11-09T09:54:34;23.50;99.90
26479;DHT22;14163;-26.142;27.992;2022-11-09T09:57:17;23.50;99.90
26479;DHT22;14163;-26.142;27.992;2022-11-09T09:59:49;23.50;99.90
26479;DHT22;14163;-26.142;27.992;2022-11-09T10:02:22;23.50;99.90
26479;DHT22;14163;-26.142;27.992;2022-11-09T10:04:54;23.50;99.90
26479;DHT22;14163;-26.142;27.992;2022-11-09T10:07:28;23.60;99.90
26479;DHT22;14163;-26.142;27.992;2022-11-09T10:10:27;23.80;99.90
26479;DHT22;14163;-26.142;27.992;2022-11-09T10:13:17;23.90;99.90
26479;DHT22;14163;-26.142;27.992;2022-11-09T10:15:53;24.00;99.90
26479;DHT22;14163;-26.142;27.992;2022-11-09T10:18:37;24.10;99.90
26479;DHT22;14163;-26.142;27.992;2022-11-09T10:21:19;24.10;99.90
26479;DHT22;14163;-26.142;27.992;2022-11-09T10:24:02;24.10;99.90
26479;DHT22;14163;-26.142;27.992;2022-11-09T10:26:38;24.00;99.90
26479;DHT22;14163;-26.142;27.992;2022-11-09T10:29:19;24.10;99.90
26479;DHT22;14163;-26.142;27.992;2022-11-09T10:31:51;24.20;99.90
26479;DHT22;14163;-26.142;27.992;2022-11-09T10:34:26;24.30;99.90
26479;DHT22;14163;-26.142;27.992;2022-11-09T10:37:03;24.30;99.90
26479;DHT22;14163;-26.142;27.992;2022-11-09T10:39:39;24.30;99.90
26479;DHT22;14163;-26.142;27.992;2022-11-09T10:42:11;24.30;99.90
26479;DHT22;14163;-26.142;27.992;2022-11-09T10:44:40;24.40;99.90
26479;DHT22;14163;-26.142;27.992;2022-11-09T10:47:11;24.40;99.90
26479;DHT22;14163;-26.142;27.992;2022-11-09T10:49:42;24.50;99.90
26479;DHT22;14163;-26.142;27.992;2022-11-09T10:52:30;24.50;99.90
26479;DHT22;14163;-26.142;27.992;2022-11-09T10:55:23;24.60;99.90
26479;DHT22;14163;-26.142;27.992;2022-11-09T10:57:58;24.70;99.90
26479;DHT22;14163;-26.142;27.992;2022-11-09T11:00:28;24.80;99.90
26479;DHT22;14163;-26.142;27.992;2022-11-09T11:02:57;24.80;99.90
26479;DHT22;14163;-26.142;27.992;2022-11-09T11:05:38;24.80;99.90
26479;DHT22;14163;-26.142;27.992;2022-11-09T11:08:30;24.90;99.90
26479;DHT22;14163;-26.142;27.992;2022-11-09T11:11:22;25.00;99.90
26479;DHT22;14163;-26.142;27.992;2022-11-09T11:14:09;25.00;99.90
26479;DHT22;14163;-26.142;27.992;2022-11-09T11:16:39;25.10;99.90
26479;DHT22;14163;-26.142;27.992;2022-11-09T11:19:29;25.20;99.90
26479;DHT22;14163;-26.142;27.992;2022-11-09T11:22:21;25.30;99.90
26479;DHT22;14163;-26.142;27.992;2022-11-09T11:24:55;25.40;99.90
26479;DHT22;14163;-26.142;27.992;2022-11-09T11:27:30;25.50;99.90
26479;DHT22;14163;-26.142;27.992;2022-11-09T11:30:07;25.70;99.90
26479;DHT22;14163;-26.142;27.992;2022-11-09T11:32:38;25.80;99.90
26479;DHT22;14163;-26.142;27.992;2022-11-09T11:35:12;26.10;99.90
26479;DHT22;14163;-26.142;27.992;2022-11-09T11:37:55;26.30;99.90
26479;DHT22;14163;-26.142;27.992;2022-11-09T11:40:31;26.60;99.90
26479;DHT22;14163;-26.142;27.992;2022-11-09T11:43:16;26.70;99.90
26479;DHT22;14163;-26.142;27.992;2022-11-09T11:45:54;26.70;99.90
26479;DHT22;14163;-26.142;27.992;2022-11-09T11:48:48;26.70;99.90
26479;DHT22;14163;-26.142;27.992;2022-11-09T11:51:26;26.80;99.90
26479;DHT22;14163;-26.142;27.992;2022-11-09T11:54:08;27.70;99.90
26479;DHT22;14163;-26.142;27.992;2022-11-09T11:56:44;28.80;99.90
26479;DHT22;14163;-26.142;27.992;2022-11-09T11:59:42;29.20;99.90
26479;DHT22;14163;-26.142;27.992;2022-11-09T12:05:33;28.80;99.90
26479;DHT22;14163;-26.142;27.992;2022-11-09T12:08:12;28.60;99.90
26479;DHT22;14163;-26.142;27.992;2022-11-09T12:10:50;29.40;99.90
26479;DHT22;14163;-26.142;27.992;2022-11-09T12:13:43;30.00;99.90
26479;DHT22;14163;-26.142;27.992;2022-11-09T12:16:21;30.00;99.90
26479;DHT22;14163;-26.142;27.992;2022-11-09T12:19:01;29.70;99.90
26479;DHT22;14163;-26.142;27.992;2022-11-09T12:21:38;29.50;99.90
26479;DHT22;14163;-26.142;27.992;2022-11-09T12:24:26;29.60;99.90
26479;DHT22;14163;-26.142;27.992;2022-11-09T12:27:16;29.50;99.90
26479;DHT22;14163;-26.142;27.992;2022-11-09T12:29:54;29.50;99.90
26479;DHT22;14163;-26.142;27.992;2022-11-09T12:32:31;29.40;99.90
26479;DHT22;14163;-26.142;27.992;2022-11-09T12:35:15;29.20;99.90
26479;DHT22;14163;-26.142;27.992;2022-11-09T12:37:49;29.10;99.90
26479;DHT22;14163;-26.142;27.992;2022-11-09T12:40:23;29.00;99.90
26479;DHT22;14163;-26.142;27.992;2022-11-09T12:43:00;28.80;99.90
26479;DHT22;14163;-26.142;27.992;2022-11-09T12:45:32;28.40;99.90
26479;DHT22;14163;-26.142;27.992;2022-11-09T12:48:10;28.30;99.90
26479;DHT22;14163;-26.142;27.992;2022-11-09T12:50:41;28.10;99.90
26479;DHT22;14163;-26.142;27.992;2022-11-09T12:53:12;27.90;99.90
26479;DHT22;14163;-26.142;27.992;2022-11-09T12:55:48;27.90;99.90
26479;DHT22;14163;-26.142;27.992;2022-11-09T12:58:23;28.00;99.90
26479;DHT22;14163;-26.142;27.992;2022-11-09T13:00:54;28.00;99.90
26479;DHT22;14163;-26.142;27.992;2022-11-09T13:03:27;28.00;99.90
26479;DHT22;14163;-26.142;27.992;2022-11-09T13:06:15;28.00;99.90
26479;DHT22;14163;-26.142;27.992;2022-11-09T13:08:59;28.00;99.90
26479;DHT22;14163;-26.142;27.992;2022-11-09T13:11:36;27.90;99.90
26479;DHT22;14163;-26.142;27.992;2022-11-09T13:14:33;27.80;99.90
26479;DHT22;14163;-26.142;27.992;2022-11-09T13:23:34;27.80;99.90
26479;DHT22;14163;-26.142;27.992;2022-11-09T13:26:04;27.80;99.90
26479;DHT22;14163;-26.142;27.992;2022-11-09T13:34:45;27.70;99.90
26479;DHT22;14163;-26.142;27.992;2022-11-09T13:40:41;27.80;99.90
26479;DHT22;14163;-26.142;27.992;2022-11-09T13:43:21;27.80;99.90
26479;DHT22;14163;-26.142;27.992;2022-11-09T13:45:53;27.80;99.90
26479;DHT22;14163;-26.142;27.992;2022-11-09T13:48:37;27.80;99.90
26479;DHT22;14163;-26.142;27.992;2022-11-09T13:51:11;28.00;99.90
26479;DHT22;14163;-26.142;27.992;2022-11-09T13:53:53;27.90;99.90
26479;DHT22;14163;-26.142;27.992;2022-11-09T13:56:27;27.90;99.90
26479;DHT22;14163;-26.142;27.992;2022-11-09T13:59:04;27.90;99.90
26479;DHT22;14163;-26.142;27.992;2022-11-09T14:01:45;27.80;99.90
26479;DHT22;14163;-26.142;27.992;2022-11-09T14:04:25;27.80;99.90
26479;DHT22;14163;-26.142;27.992;2022-11-09T14:07:01;27.70;99.90
26479;DHT22;14163;-26.142;27.992;2022-11-09T14:09:37;27.70;99.90
26479;DHT22;14163;-26.142;27.992;2022-11-09T14:12:18;27.60;99.90
26479;DHT22;14163;-26.142;27.992;2022-11-09T14:15:02;27.70;99.90
26479;DHT22;14163;-26.142;27.992;2022-11-09T14:17:38;27.80;99.90
26479;DHT22;14163;-26.142;27.992;2022-11-09T14:20:17;27.90;99.90
26479;DHT22;14163;-26.142;27.992;2022-11-09T14:22:51;28.00;99.90
26479;DHT22;14163;-26.142;27.992;2022-11-09T14:25:22;28.00;99.90
26479;DHT22;14163;-26.142;27.992;2022-11-09T14:27:53;28.10;99.90
26479;DHT22;14163;-26.142;27.992;2022-11-09T14:30:26;28.10;99.90
26479;DHT22;14163;-26.142;27.992;2022-11-09T14:32:57;28.00;99.90
26479;DHT22;14163;-26.142;27.992;2022-11-09T14:35:29;28.00;99.90
26479;DHT22;14163;-26.142;27.992;2022-11-09T14:38:13;28.00;99.90
26479;DHT22;14163;-26.142;27.992;2022-11-09T14:40:44;28.00;99.90
26479;DHT22;14163;-26.142;27.992;2022-11-09T14:43:23;27.90;99.90
26479;DHT22;14163;-26.142;27.992;2022-11-09T14:45:56;27.90;99.90
26479;DHT22;14163;-26.142;27.992;2022-11-09T14:48:26;27.90;99.90
26479;DHT22;14163;-26.142;27.992;2022-11-09T14:50:58;27.90;99.90
26479;DHT22;14163;-26.142;27.992;2022-11-09T14:53:31;27.80;99.90
26479;DHT22;14163;-26.142;27.992;2022-11-09T14:56:02;27.80;99.90
26479;DHT22;14163;-26.142;27.992;2022-11-09T14:58:34;27.80;99.90
26479;DHT22;14163;-26.142;27.992;2022-11-09T15:01:08;27.70;99.90
26479;DHT22;14163;-26.142;27.992;2022-11-09T15:03:38;27.70;99.90
26479;DHT22;14163;-26.142;27.992;2022-11-09T15:06:09;27.70;99.90
26479;DHT22;14163;-26.142;27.992;2022-11-09T15:08:51;27.80;99.90
26479;DHT22;14163;-26.142;27.992;2022-11-09T15:11:30;27.80;99.90
26479;DHT22;14163;-26.142;27.992;2022-11-09T15:14:11;27.80;99.90
26479;DHT22;14163;-26.142;27.992;2022-11-09T15:16:40;27.80;99.90
26479;DHT22;14163;-26.142;27.992;2022-11-09T15:19:26;27.90;99.90
26479;DHT22;14163;-26.142;27.992;2022-11-09T15:21:59;28.00;99.90
26479;DHT22;14163;-26.142;27.992;2022-11-09T15:24:45;28.00;99.90
26479;DHT22;14163;-26.142;27.992;2022-11-09T15:27:30;28.00;99.90
26479;DHT22;14163;-26.142;27.992;2022-11-09T15:29:59;28.00;99.90
26479;DHT22;14163;-26.142;27.992;2022-11-09T15:32:33;28.10;99.90
26479;DHT22;14163;-26.142;27.992;2022-11-09T15:35:14;28.10;99.90
26479;DHT22;14163;-26.142;27.992;2022-11-09T15:37:48;28.20;99.90
26479;DHT22;14163;-26.142;27.992;2022-11-09T15:40:21;28.20;99.90
26479;DHT22;14163;-26.142;27.992;2022-11-09T15:42:51;28.20;99.90
26479;DHT22;14163;-26.142;27.992;2022-11-09T15:45:20;28.30;99.90
26479;DHT22;14163;-26.142;27.992;2022-11-09T15:47:51;28.20;99.90
26479;DHT22;14163;-26.142;27.992;2022-11-09T15:50:22;28.10;99.90
26479;DHT22;14163;-26.142;27.992;2022-11-09T15:52:51;28.10;99.90
26479;DHT22;14163;-26.142;27.992;2022-11-09T15:55:22;28.10;99.90